Time;durP1;ratioP1;P1;durP2;ratioP2;P2;SDS_P1;SDS_P2;PMS_P1;PMS_P2;Temp;Humidity;BMP_temperature;BMP_pressure;BME280_temperature;BME280_humidity;BME280_pressure;Samples;Min_cycle;Max_cycle;Signal;HPM_P1;HPM_P2
2022/05/26 00:01:05;;;;;;;4.82;4.28;;;;;;;;;;4893274;29;20123;-79
2022/05/26 00:03:33;;;;;;;3.92;3.60;;;;;;;;;;4906154;29;20051;-79
2022/05/26 00:06:01;;;;;;;7.47;3.90;;;;;;;;;;4914421;29;20533;-80
2022/05/26 00:08:28;;;;;;;6.15;4.00;;;;;;;;;;4916565;29;20043;-79
2022/05/26 00:10:56;;;;;;;4.43;3.60;;;;;;;;;;4928582;29;20106;-80
2022/05/26 00:13:25;;;;;;;4.45;3.88;;;;;;;;;;4914773;29;20422;-79
2022/05/26 00:15:52;;;;;;;6.43;3.90;;;;;;;;;;4924519;29;20040;-79
2022/05/26 00:18:20;;;;;;;4.85;3.95;;;;;;;;;;4923719;29;20111;-80
2022/05/26 00:20:47;;;;;;;3.70;3.42;;;;;;;;;;4919782;29;20096;-80
2022/05/26 00:23:15;;;;;;;4.05;2.60;;;;;;;;;;4935002;29;20047;-80
2022/05/26 00:25:42;;;;;;;3.70;3.40;;;;;;;;;;4917258;29;20394;-80
2022/05/26 00:28:09;;;;;;;3.20;3.00;;;;;;;;;;4924894;29;20048;-79
2022/05/26 00:30:37;;;;;;;4.30;2.90;;;;;;;;;;4914900;29;20040;-80
2022/05/26 00:33:05;;;;;;;3.30;3.10;;;;;;;;;;4909658;29;20052;-80
2022/05/26 00:35:34;;;;;;;3.85;3.45;;;;;;;;;;4922551;29;20061;-80
2022/05/26 00:38:03;;;;;;;5.68;3.75;;;;;;;;;;4931906;29;20040;-80
2022/05/26 00:40:31;;;;;;;4.32;3.15;;;;;;;;;;4930059;29;20442;-80
2022/05/26 00:42:58;;;;;;;3.90;3.42;;;;;;;;;;4913329;29;20067;-80
2022/05/26 00:45:30;;;;;;;5.53;3.60;;;;;;;;;;4914183;29;20051;-79
2022/05/26 00:47:57;;;;;;;3.85;3.40;;;;;;;;;;4906074;29;20043;-80
2022/05/26 00:50:27;;;;;;;3.67;3.38;;;;;;;;;;4913407;29;20183;-79
2022/05/26 00:52:58;;;;;;;6.93;4.28;;;;;;;;;;4920109;29;20529;-79
2022/05/26 00:55:27;;;;;;;5.18;3.30;;;;;;;;;;4933734;29;20050;-80
2022/05/26 00:58:15;;;;;;;5.97;3.17;;;;;;;;;;4934947;29;20051;-80
2022/05/26 01:00:43;;;;;;;6.93;3.97;;;;;;;;;;4911613;29;20048;-80
2022/05/26 01:03:46;;;;;;;3.55;3.10;;;;;;;;;;4918510;29;20085;-80
2022/05/26 01:06:19;;;;;;;4.13;3.08;;;;;;;;;;4830551;29;20050;-80
2022/05/26 01:09:00;;;;;;;4.25;2.92;;;;;;;;;;4919783;29;20589;-79
2022/05/26 01:11:28;;;;;;;7.80;3.73;;;;;;;;;;4895414;29;20594;-81
2022/05/26 01:13:59;;;;;;;3.80;3.50;;;;;;;;;;4882860;29;20044;-81
2022/05/26 01:16:35;;;;;;;4.22;3.92;;;;;;;;;;4882635;29;20041;-81
2022/05/26 01:19:26;;;;;;;4.82;4.40;;;;;;;;;;4899159;29;20148;-82
2022/05/26 01:21:55;;;;;;;4.18;3.67;;;;;;;;;;4904001;29;20123;-81
2022/05/26 01:24:42;;;;;;;6.22;4.47;;;;;;;;;;4892856;29;20578;-81
2022/05/26 01:27:09;;;;;;;4.50;4.20;;;;;;;;;;4904452;29;20045;-83
2022/05/26 01:29:49;;;;;;;4.05;3.70;;;;;;;;;;4903555;29;20063;-81
2022/05/26 01:32:36;;;;;;;4.65;4.18;;;;;;;;;;4880907;29;20049;-80
2022/05/26 01:35:22;;;;;;;4.68;4.10;;;;;;;;;;4884278;29;20063;-79
2022/05/26 01:38:09;;;;;;;4.85;4.45;;;;;;;;;;4901266;29;20052;-79
2022/05/26 01:40:54;;;;;;;4.47;4.00;;;;;;;;;;4901008;29;20040;-79
2022/05/26 01:43:27;;;;;;;4.30;3.88;;;;;;;;;;4884174;29;20106;-79
2022/05/26 01:46:00;;;;;;;5.85;4.72;;;;;;;;;;4903888;29;20068;-79
2022/05/26 01:48:33;;;;;;;4.50;4.07;;;;;;;;;;4899779;29;20051;-79
2022/05/26 01:51:07;;;;;;;4.55;3.97;;;;;;;;;;4899658;29;20040;-82
2022/05/26 01:53:37;;;;;;;5.18;4.60;;;;;;;;;;4899294;29;20117;-80
2022/05/26 01:56:12;;;;;;;4.45;4.15;;;;;;;;;;4905087;29;20045;-80
2022/05/26 01:58:42;;;;;;;8.30;3.97;;;;;;;;;;4885337;29;20076;-79
2022/05/26 02:01:14;;;;;;;4.60;4.30;;;;;;;;;;4887758;29;20135;-80
2022/05/26 02:03:41;;;;;;;;;;;;;;;;;;4907833;29;20052;-79
2022/05/26 02:06:28;;;;;;;13.30;4.70;;;;;;;;;;4907809;29;19966;-79
2022/05/26 02:09:00;;;;;;;4.50;4.10;;;;;;;;;;4906073;29;20581;-79
2022/05/26 02:11:28;;;;;;;8.63;4.10;;;;;;;;;;4905991;29;20065;-79
2022/05/26 02:13:55;;;;;;;5.15;4.07;;;;;;;;;;4909209;29;20494;-80
2022/05/26 02:16:35;;;;;;;5.45;4.25;;;;;;;;;;4910996;29;20065;-79
2022/05/26 02:19:15;;;;;;;5.97;4.53;;;;;;;;;;4913607;29;20060;-79
2022/05/26 02:21:52;;;;;;;4.60;4.20;;;;;;;;;;4908917;29;20043;-80
2022/05/26 02:24:32;;;;;;;6.50;4.18;;;;;;;;;;4892429;29;20059;-79
2022/05/26 02:26:59;;;;;;;4.65;4.25;;;;;;;;;;4906425;29;20135;-79
2022/05/26 02:32:13;;;;;;;6.80;4.95;;;;;;;;;;4909328;29;20040;-81
2022/05/26 02:34:41;;;;;;;9.57;5.93;;;;;;;;;;4914687;29;20040;-80
2022/05/26 02:37:10;;;;;;;6.90;5.32;;;;;;;;;;4914296;29;20064;-80
2022/05/26 02:39:37;;;;;;;9.13;5.82;;;;;;;;;;4915618;29;20051;-80
2022/05/26 02:42:05;;;;;;;11.77;5.50;;;;;;;;;;4911283;29;20140;-80
2022/05/26 02:44:33;;;;;;;8.52;4.75;;;;;;;;;;4891897;29;20040;-80
2022/05/26 02:47:07;;;;;;;6.07;4.35;;;;;;;;;;4911210;29;20072;-79
2022/05/26 02:49:41;;;;;;;4.43;4.00;;;;;;;;;;4898921;29;20058;-79
2022/05/26 02:52:14;;;;;;;4.90;3.85;;;;;;;;;;4899016;29;20068;-83
2022/05/26 02:54:51;;;;;;;5.85;4.00;;;;;;;;;;4894768;29;20047;-81
2022/05/26 02:57:24;;;;;;;3.92;3.55;;;;;;;;;;4896109;29;20517;-79
2022/05/26 03:00:10;;;;;;;3.65;3.45;;;;;;;;;;4878555;29;20129;-80
2022/05/26 03:02:46;;;;;;;6.55;3.85;;;;;;;;;;4886721;29;20040;-81
2022/05/26 03:05:17;;;;;;;4.97;4.40;;;;;;;;;;4914909;29;20092;-79
2022/05/26 03:07:46;;;;;;;5.00;4.10;;;;;;;;;;4897189;29;20522;-80
2022/05/26 03:10:15;;;;;;;3.67;3.47;;;;;;;;;;4915735;29;20131;-80
2022/05/26 03:12:43;;;;;;;4.75;3.60;;;;;;;;;;4917976;29;20054;-80
2022/05/26 03:15:15;;;;;;;5.10;4.60;;;;;;;;;;4917079;29;20108;-81
2022/05/26 03:17:42;;;;;;;4.30;4.00;;;;;;;;;;4902094;29;20135;-80
2022/05/26 03:20:10;;;;;;;4.07;3.78;;;;;;;;;;4900443;29;20135;-81
2022/05/26 03:22:38;;;;;;;4.38;4.00;;;;;;;;;;4900159;29;20048;-80
2022/05/26 03:25:06;;;;;;;7.22;4.35;;;;;;;;;;4900739;29;20123;-80
2022/05/26 03:27:34;;;;;;;3.85;3.65;;;;;;;;;;4904102;29;20498;-81
2022/05/26 03:30:01;;;;;;;5.10;4.00;;;;;;;;;;4897212;29;20521;-81
2022/05/26 03:32:28;;;;;;;4.40;4.10;;;;;;;;;;4901992;29;20051;-80
2022/05/26 03:40:46;;;;;;;16.25;4.25;;;;;;;;;;4899147;29;20047;-81
2022/05/26 03:43:15;;;;;;;4.18;3.88;;;;;;;;;;4899092;29;20152;-81
2022/05/26 03:45:43;;;;;;;4.28;3.97;;;;;;;;;;4900048;29;20512;-81
2022/05/26 03:48:10;;;;;;;4.30;4.00;;;;;;;;;;4900795;29;20245;-82
2022/05/26 03:50:37;;;;;;;5.72;4.10;;;;;;;;;;4902882;29;20052;-80
2022/05/26 03:53:05;;;;;;;5.45;4.40;;;;;;;;;;4901797;29;20495;-80
2022/05/26 03:55:32;;;;;;;7.03;4.30;;;;;;;;;;4902767;29;20040;-81
2022/05/26 03:58:01;;;;;;;4.70;4.30;;;;;;;;;;4892674;29;20053;-80
2022/05/26 04:00:28;;;;;;;4.82;4.43;;;;;;;;;;4901328;29;20040;-81
2022/05/26 04:02:56;;;;;;;6.82;4.72;;;;;;;;;;4900571;29;20037;-81
2022/05/26 04:05:23;;;;;;;4.93;4.53;;;;;;;;;;4903930;29;20048;-81
2022/05/26 04:07:51;;;;;;;4.15;3.85;;;;;;;;;;4894415;29;20059;-81
2022/05/26 04:10:19;;;;;;;5.20;4.03;;;;;;;;;;4880642;29;20049;-81
2022/05/26 04:12:47;;;;;;;4.90;4.28;;;;;;;;;;4902268;29;20049;-81
2022/05/26 04:15:16;;;;;;;7.07;4.90;;;;;;;;;;4896467;29;20384;-83
2022/05/26 04:17:43;;;;;;;5.40;5.00;;;;;;;;;;4882150;29;20049;-82
2022/05/26 04:20:12;;;;;;;6.57;5.13;;;;;;;;;;4904294;29;20051;-82
2022/05/26 04:22:40;;;;;;;6.95;4.60;;;;;;;;;;4898989;29;20048;-81
2022/05/26 04:25:07;;;;;;;7.30;5.20;;;;;;;;;;4906172;29;20076;-81
2022/05/26 04:27:36;;;;;;;5.00;4.60;;;;;;;;;;4903002;29;20487;-81
2022/05/26 04:30:04;;;;;;;6.28;4.40;;;;;;;;;;4879035;29;20056;-82
2022/05/26 04:32:32;;;;;;;5.13;4.15;;;;;;;;;;4887995;29;20063;-81
2022/05/26 04:34:59;;;;;;;13.13;4.45;;;;;;;;;;4897448;29;20075;-81
2022/05/26 04:37:27;;;;;;;12.32;4.40;;;;;;;;;;4879122;29;20471;-83
2022/05/26 04:39:56;;;;;;;7.15;4.43;;;;;;;;;;4904178;29;20048;-82
2022/05/26 04:42:24;;;;;;;120.82;6.00;;;;;;;;;;4888930;29;20104;-82
2022/05/26 04:44:52;;;;;;;4.65;4.30;;;;;;;;;;4901409;29;20063;-81
2022/05/26 04:47:20;;;;;;;7.57;4.35;;;;;;;;;;4898899;29;20464;-82
2022/05/26 04:49:47;;;;;;;5.68;4.70;;;;;;;;;;4897732;29;20048;-82
2022/05/26 04:52:17;;;;;;;6.82;4.53;;;;;;;;;;4908077;29;20078;-83
2022/05/26 04:54:45;;;;;;;19.40;4.57;;;;;;;;;;4916423;29;20044;-81
2022/05/26 04:57:14;;;;;;;25.20;4.68;;;;;;;;;;4900693;29;20044;-82
2022/05/26 04:59:41;;;;;;;26.98;5.32;;;;;;;;;;4918852;29;20473;-82
2022/05/26 05:02:16;;;;;;;15.98;4.22;;;;;;;;;;4886258;29;20140;-81
2022/05/26 05:04:46;;;;;;;26.00;5.15;;;;;;;;;;4901539;29;20286;-81
2022/05/26 05:07:15;;;;;;;6.15;4.28;;;;;;;;;;4906845;29;20178;-79
2022/05/26 05:09:42;;;;;;;19.77;5.13;;;;;;;;;;4906959;29;20060;-82
2022/05/26 05:12:14;;;;;;;8.30;4.60;;;;;;;;;;4913478;29;20064;-82
2022/05/26 05:14:44;;;;;;;50.58;6.05;;;;;;;;;;4896269;29;20045;-81
2022/05/26 05:17:12;;;;;;;26.05;5.15;;;;;;;;;;4904044;29;20499;-81
2022/05/26 05:19:39;;;;;;;17.05;5.07;;;;;;;;;;4895641;29;20515;-82
2022/05/26 05:22:14;;;;;;;13.65;4.82;;;;;;;;;;4895516;29;20040;-81
2022/05/26 05:24:47;;;;;;;8.50;5.32;;;;;;;;;;4897503;29;20109;-81
2022/05/26 05:27:18;;;;;;;3.78;3.47;;;;;;;;;;4905134;29;20049;-80
2022/05/26 05:29:47;;;;;;;8.40;5.45;;;;;;;;;;4886740;29;20060;-80
2022/05/26 05:32:18;;;;;;;5.53;4.78;;;;;;;;;;4903769;29;20060;-81
2022/05/26 05:34:49;;;;;;;6.03;5.38;;;;;;;;;;4896853;29;21048;-80
2022/05/26 05:37:17;;;;;;;5.67;5.17;;;;;;;;;;4899544;29;20049;-81
2022/05/26 05:39:44;;;;;;;5.22;4.72;;;;;;;;;;4897167;29;20091;-81
2022/05/26 05:42:12;;;;;;;5.50;5.10;;;;;;;;;;4919147;29;20040;-81
2022/05/26 05:44:39;;;;;;;5.30;4.90;;;;;;;;;;4878525;29;20074;-82
2022/05/26 05:47:07;;;;;;;5.35;4.95;;;;;;;;;;4902488;29;20048;-81
2022/05/26 05:49:35;;;;;;;4.80;4.43;;;;;;;;;;4872704;29;20136;-81
2022/05/26 05:52:21;;;;;;;4.65;4.25;;;;;;;;;;4896830;29;20052;-82
2022/05/26 05:54:49;;;;;;;5.50;5.05;;;;;;;;;;4892012;29;20051;-81
2022/05/26 05:57:17;;;;;;;5.28;4.90;;;;;;;;;;4903124;29;20050;-81
2022/05/26 05:59:44;;;;;;;4.85;4.50;;;;;;;;;;4895125;29;20037;-82
2022/05/26 06:02:12;;;;;;;5.13;4.72;;;;;;;;;;4902873;29;20862;-81
2022/05/26 06:04:59;;;;;;;4.13;3.90;;;;;;;;;;4887231;29;20056;-81
2022/05/26 06:07:27;;;;;;;4.50;4.10;;;;;;;;;;4913912;29;20052;-82
2022/05/26 06:09:54;;;;;;;4.38;4.07;;;;;;;;;;4900311;29;20044;-81
2022/05/26 06:12:22;;;;;;;4.50;4.10;;;;;;;;;;4903514;29;20091;-82
2022/05/26 06:14:50;;;;;;;4.22;3.92;;;;;;;;;;4890217;29;20049;-80
2022/05/26 06:17:17;;;;;;;4.20;3.90;;;;;;;;;;4898485;29;20059;-81
2022/05/26 06:19:44;;;;;;;4.15;3.85;;;;;;;;;;4883973;29;20091;-81
2022/05/26 06:22:17;;;;;;;4.05;3.83;;;;;;;;;;4895122;29;20037;-81
2022/05/26 06:24:46;;;;;;;4.60;4.22;;;;;;;;;;4892335;29;20048;-80
2022/05/26 06:30:02;;;;;;;4.28;3.97;;;;;;;;;;4893618;29;20477;-80
2022/05/26 06:38:02;;;;;;;3.90;3.60;;;;;;;;;;4898445;29;20044;-80
2022/05/26 06:40:31;;;;;;;3.75;3.55;;;;;;;;;;4900688;29;20044;-80
2022/05/26 06:42:59;;;;;;;4.00;3.70;;;;;;;;;;4888289;29;20147;-84
2022/05/26 06:45:27;;;;;;;4.05;3.75;;;;;;;;;;4883490;29;20509;-85
2022/05/26 06:47:55;;;;;;;3.85;3.55;;;;;;;;;;4877759;29;20063;-83
2022/05/26 06:50:22;;;;;;;3.45;3.22;;;;;;;;;;4848888;29;20052;-83
2022/05/26 06:52:51;;;;;;;3.22;3.03;;;;;;;;;;4892787;29;20054;-85
2022/05/26 06:55:18;;;;;;;3.58;3.38;;;;;;;;;;4905943;29;20042;-85
2022/05/26 06:57:45;;;;;;;3.22;3.03;;;;;;;;;;4892805;29;20099;-83
2022/05/26 07:00:15;;;;;;;3.47;2.70;;;;;;;;;;4892318;29;20127;-86
2022/05/26 07:02:42;;;;;;;3.53;2.80;;;;;;;;;;4901608;29;20072;-85
2022/05/26 07:05:11;;;;;;;4.65;2.95;;;;;;;;;;4886637;29;20057;-84
2022/05/26 07:07:42;;;;;;;3.25;3.05;;;;;;;;;;4888210;29;20493;-84
2022/05/26 07:10:13;;;;;;;4.95;2.63;;;;;;;;;;4937683;23;20555;-79
2022/05/26 07:12:46;;;;;;;;;;;;;;;;;;4932860;28;20050;-79
2022/05/26 07:15:14;;;;;;;2.58;2.47;;;;;;;;;;4935025;28;19927;-79
2022/05/26 07:17:45;;;;;;;2.83;2.33;;;;;;;;;;4932406;28;20110;-79
2022/05/26 07:20:13;;;;;;;2.90;2.70;;;;;;;;;;4911147;29;20466;-79
2022/05/26 07:22:41;;;;;;;4.03;2.30;;;;;;;;;;4903013;29;20482;-79
2022/05/26 07:25:10;;;;;;;2.90;2.58;;;;;;;;;;4921733;29;20277;-79
2022/05/26 07:27:37;;;;;;;2.33;2.13;;;;;;;;;;4933087;29;20053;-79
2022/05/26 07:30:05;;;;;;;2.22;1.90;;;;;;;;;;4907645;29;20047;-80
2022/05/26 07:32:33;;;;;;;3.60;1.75;;;;;;;;;;4923047;29;20375;-79
2022/05/26 07:35:00;;;;;;;2.03;1.88;;;;;;;;;;4907211;29;20138;-79
2022/05/26 07:43:04;;;;;;;2.97;2.03;;;;;;;;;;4922433;29;20043;-80
2022/05/26 07:45:32;;;;;;;2.95;1.85;;;;;;;;;;4906504;29;20080;-80
2022/05/26 07:48:00;;;;;;;2.35;1.80;;;;;;;;;;4902471;29;20043;-80
2022/05/26 07:50:28;;;;;;;1.58;1.50;;;;;;;;;;4906403;29;20056;-80
2022/05/26 07:52:58;;;;;;;1.60;1.50;;;;;;;;;;4904916;29;20040;-80
2022/05/26 07:55:26;;;;;;;2.35;1.88;;;;;;;;;;4923898;29;20058;-78
2022/05/26 07:57:56;;;;;;;1.58;1.20;;;;;;;;;;4901771;29;20433;-80
2022/05/26 08:00:24;;;;;;;2.25;1.20;;;;;;;;;;4906092;29;20557;-79
2022/05/26 08:02:51;;;;;;;2.78;1.20;;;;;;;;;;4920176;29;20131;-79
2022/05/26 08:05:19;;;;;;;1.15;1.08;;;;;;;;;;4905566;29;20051;-79
2022/05/26 08:07:47;;;;;;;2.40;1.10;;;;;;;;;;4900549;29;20059;-80
2022/05/26 08:10:17;;;;;;;2.30;1.00;;;;;;;;;;4919430;29;20044;-79
2022/05/26 08:12:45;;;;;;;1.35;0.80;;;;;;;;;;4919972;29;20039;-79
2022/05/26 08:15:15;;;;;;;4.90;1.02;;;;;;;;;;4923131;29;20541;-79
2022/05/26 08:17:43;;;;;;;0.90;0.90;;;;;;;;;;4910421;29;20137;-79
2022/05/26 08:20:11;;;;;;;2.10;1.10;;;;;;;;;;4889928;29;20073;-79
2022/05/26 08:22:38;;;;;;;0.90;0.90;;;;;;;;;;4925707;29;20579;-84
2022/05/26 08:25:06;;;;;;;1.08;0.95;;;;;;;;;;4906665;29;20053;-79
2022/05/26 08:27:33;;;;;;;0.80;0.80;;;;;;;;;;4904336;29;20059;-79
2022/05/26 08:30:01;;;;;;;2.00;0.90;;;;;;;;;;4933420;29;20047;-80
2022/05/26 08:32:28;;;;;;;2.88;0.88;;;;;;;;;;4921169;29;20039;-79
2022/05/26 08:35:00;;;;;;;1.13;1.00;;;;;;;;;;4922213;29;20050;-79
2022/05/26 08:37:27;;;;;;;0.82;0.80;;;;;;;;;;4916893;29;20043;-78
2022/05/26 08:39:55;;;;;;;1.40;0.65;;;;;;;;;;4906085;29;20043;-78
2022/05/26 08:42:31;;;;;;;3.65;1.23;;;;;;;;;;4918690;29;20058;-80
2022/05/26 08:45:00;;;;;;;1.90;1.00;;;;;;;;;;4937770;29;20334;-79
2022/05/26 08:47:33;;;;;;;3.45;0.60;;;;;;;;;;4919482;29;20051;-79
2022/05/26 08:50:11;;;;;;;0.75;0.52;;;;;;;;;;4931494;29;20052;-79
2022/05/26 08:52:41;;;;;;;2.67;0.70;;;;;;;;;;4936350;29;20142;-79
2022/05/26 08:55:12;;;;;;;0.52;0.52;;;;;;;;;;4932570;29;20470;-79
2022/05/26 08:57:44;;;;;;;0.55;0.55;;;;;;;;;;4932781;29;20044;-80
2022/05/26 09:00:14;;;;;;;3.90;0.60;;;;;;;;;;4930474;29;20043;-78
2022/05/26 09:02:41;;;;;;;0.90;0.68;;;;;;;;;;4916469;29;20102;-79
2022/05/26 09:05:16;;;;;;;0.70;0.45;;;;;;;;;;4920370;29;20051;-79
2022/05/26 09:13:57;;;;;;;1.33;1.13;;;;;;;;;;4931756;29;20691;-79
2022/05/26 09:16:27;;;;;;;2.50;2.28;;;;;;;;;;4921462;29;20046;-79
2022/05/26 09:19:07;;;;;;;4.38;0.70;;;;;;;;;;4926287;29;20090;-79
2022/05/26 09:21:36;;;;;;;0.75;0.60;;;;;;;;;;4915334;29;20035;-79
2022/05/26 09:24:17;;;;;;;1.05;0.60;;;;;;;;;;4897786;29;20230;-79
2022/05/26 09:26:48;;;;;;;0.50;0.50;;;;;;;;;;4930330;29;20031;-84
2022/05/26 09:29:16;;;;;;;4.32;0.52;;;;;;;;;;4933064;29;20142;-80
2022/05/26 09:31:48;;;;;;;2.05;0.50;;;;;;;;;;4928541;29;20050;-78
2022/05/26 09:34:22;;;;;;;2.17;0.50;;;;;;;;;;4932796;29;20043;-79
2022/05/26 09:37:07;;;;;;;1.58;0.70;;;;;;;;;;4917503;28;20065;-78
2022/05/26 09:39:42;;;;;;;1.48;0.60;;;;;;;;;;4931361;29;20051;-79
2022/05/26 09:42:16;;;;;;;1.67;0.70;;;;;;;;;;4901760;29;20063;-79
2022/05/26 09:44:44;;;;;;;0.60;0.45;;;;;;;;;;4891705;29;20040;-79
2022/05/26 09:47:21;;;;;;;1.13;0.50;;;;;;;;;;4919735;29;20052;-78
2022/05/26 09:49:50;;;;;;;0.47;0.40;;;;;;;;;;4924688;29;20051;-78
2022/05/26 09:52:22;;;;;;;1.25;0.50;;;;;;;;;;4901354;29;20069;-78
2022/05/26 09:55:04;;;;;;;0.98;0.57;;;;;;;;;;4899288;29;20398;-78
2022/05/26 09:57:32;;;;;;;0.60;0.60;;;;;;;;;;4922793;29;20067;-79
2022/05/26 09:59:59;;;;;;;3.15;0.88;;;;;;;;;;4902302;29;20044;-78
2022/05/26 10:02:36;;;;;;;4.53;0.60;;;;;;;;;;4933498;29;20078;-79
2022/05/26 10:05:10;;;;;;;2.33;0.60;;;;;;;;;;4928730;29;20051;-79
2022/05/26 10:07:43;;;;;;;0.47;0.30;;;;;;;;;;4932999;29;20178;-79
2022/05/26 10:10:30;;;;;;;4.15;0.70;;;;;;;;;;4935949;29;20095;-79
2022/05/26 10:13:03;;;;;;;3.22;0.40;;;;;;;;;;4937580;29;20545;-78
2022/05/26 10:15:41;;;;;;;1.65;0.47;;;;;;;;;;4933549;29;20058;-80
2022/05/26 10:18:21;;;;;;;2.53;0.68;;;;;;;;;;4906648;29;20099;-79
2022/05/26 10:21:06;;;;;;;0.85;0.40;;;;;;;;;;4900782;29;20055;-79
2022/05/26 10:23:46;;;;;;;3.30;0.55;;;;;;;;;;4927250;29;20565;-80
2022/05/26 10:26:22;;;;;;;1.67;0.52;;;;;;;;;;4937631;29;20505;-79
2022/05/26 10:29:14;;;;;;;1.20;0.50;;;;;;;;;;4912203;29;20095;-79
2022/05/26 10:31:58;;;;;;;1.38;0.47;;;;;;;;;;4925534;29;20046;-79
2022/05/26 10:34:44;;;;;;;2.13;0.43;;;;;;;;;;4931038;29;20458;-78
2022/05/26 10:37:14;;;;;;;3.00;0.40;;;;;;;;;;4898672;29;20147;-79
2022/05/26 10:40:01;;;;;;;2.20;0.70;;;;;;;;;;4937530;29;20039;-79
2022/05/26 10:42:35;;;;;;;1.40;0.57;;;;;;;;;;4915162;29;20417;-79
2022/05/26 10:45:20;;;;;;;1.60;0.45;;;;;;;;;;4922550;29;20070;-79
2022/05/26 10:47:51;;;;;;;4.72;0.52;;;;;;;;;;4920109;29;20075;-79
2022/05/26 10:50:22;;;;;;;5.07;0.40;;;;;;;;;;4918760;29;20055;-81
2022/05/26 10:53:01;;;;;;;2.30;0.50;;;;;;;;;;4909270;29;20778;-82
2022/05/26 10:55:39;;;;;;;1.93;0.40;;;;;;;;;;4908792;29;20634;-80
2022/05/26 10:58:15;;;;;;;1.60;0.50;;;;;;;;;;4910316;29;20106;-79
2022/05/26 11:00:42;;;;;;;1.92;0.50;;;;;;;;;;4913067;29;20638;-79
2022/05/26 11:03:29;;;;;;;2.67;0.80;;;;;;;;;;4927304;29;20047;-79
2022/05/26 11:06:03;;;;;;;2.75;0.60;;;;;;;;;;4911650;29;20054;-80
2022/05/26 11:08:34;;;;;;;0.40;0.40;;;;;;;;;;4915873;29;20067;-79
2022/05/26 11:11:12;;;;;;;5.47;0.80;;;;;;;;;;4929584;29;20071;-80
2022/05/26 11:13:52;;;;;;;0.85;0.47;;;;;;;;;;4928415;29;20140;-79
2022/05/26 11:19:29;;;;;;;2.33;0.70;;;;;;;;;;4930299;29;20107;-79
2022/05/26 11:21:56;;;;;;;1.67;0.50;;;;;;;;;;4931437;29;20557;-79
2022/05/26 11:24:24;;;;;;;0.65;0.65;;;;;;;;;;4927391;29;20059;-79
2022/05/26 11:27:11;;;;;;;0.93;0.60;;;;;;;;;;4929004;29;20052;-79
2022/05/26 11:29:38;;;;;;;2.22;0.50;;;;;;;;;;4926095;29;20428;-78
2022/05/26 11:38:00;;;;;;;1.00;0.50;;;;;;;;;;4925816;29;20050;-77
2022/05/26 11:40:31;;;;;;;2.17;0.63;;;;;;;;;;4925377;29;20136;-77
2022/05/26 11:42:59;;;;;;;0.47;0.40;;;;;;;;;;4911905;29;20304;-78
2022/05/26 11:45:28;;;;;;;1.88;0.55;;;;;;;;;;4927371;29;20110;-76
2022/05/26 11:47:58;;;;;;;1.77;0.60;;;;;;;;;;4911234;29;20051;-78
2022/05/26 11:51:04;;;;;;;2.10;0.60;;;;;;;;;;4898241;29;20051;-79
2022/05/26 11:53:32;;;;;;;1.00;0.50;;;;;;;;;;4924784;29;20050;-77
2022/05/26 11:56:22;;;;;;;1.95;0.52;;;;;;;;;;4909754;29;20047;-78
2022/05/26 11:59:09;;;;;;;1.27;0.50;;;;;;;;;;4914159;29;20055;-78
2022/05/26 12:01:38;;;;;;;2.65;0.60;;;;;;;;;;4925694;29;20174;-78
2022/05/26 12:04:15;;;;;;;0.73;0.50;;;;;;;;;;4907620;29;20047;-78
2022/05/26 12:06:53;;;;;;;1.50;1.00;;;;;;;;;;4910842;29;20299;-79
2022/05/26 12:09:27;;;;;;;0.68;0.40;;;;;;;;;;4897648;29;20058;-79
2022/05/26 12:12:07;;;;;;;1.98;0.50;;;;;;;;;;4924163;29;20282;-78
2022/05/26 12:14:41;;;;;;;2.78;0.40;;;;;;;;;;4925130;29;20050;-78
2022/05/26 12:17:27;;;;;;;1.17;0.47;;;;;;;;;;4923072;29;20044;-78
2022/05/26 12:19:55;;;;;;;2.28;0.60;;;;;;;;;;4928759;29;20415;-78
2022/05/26 12:22:22;;;;;;;0.43;0.32;;;;;;;;;;4921806;29;20040;-78
2022/05/26 12:25:10;;;;;;;1.33;0.60;;;;;;;;;;4924988;29;20473;-79
2022/05/26 12:27:54;;;;;;;1.52;0.98;;;;;;;;;;4914621;29;20442;-78
2022/05/26 12:30:33;;;;;;;1.67;0.70;;;;;;;;;;4921928;29;20505;-79
2022/05/26 12:33:02;;;;;;;0.50;0.45;;;;;;;;;;4904364;29;20087;-79
2022/05/26 12:35:35;;;;;;;0.38;0.38;;;;;;;;;;4924774;29;20476;-78
2022/05/26 12:38:17;;;;;;;3.00;0.60;;;;;;;;;;4909376;29;20074;-80
2022/05/26 12:41:03;;;;;;;1.65;0.43;;;;;;;;;;4923984;29;20413;-78
2022/05/26 12:43:43;;;;;;;1.52;0.40;;;;;;;;;;4906855;29;20071;-79
2022/05/26 12:46:17;;;;;;;1.85;0.50;;;;;;;;;;4908537;29;20044;-78
2022/05/26 12:48:51;;;;;;;0.75;0.52;;;;;;;;;;4926373;29;20051;-79
2022/05/26 12:51:20;;;;;;;3.10;0.50;;;;;;;;;;4908769;29;20111;-79
2022/05/26 12:53:51;;;;;;;0.65;0.55;;;;;;;;;;4907010;29;20054;-79
2022/05/26 12:56:40;;;;;;;1.35;0.47;;;;;;;;;;4923795;29;20633;-79
2022/05/26 12:59:12;;;;;;;0.70;0.70;;;;;;;;;;4924485;29;20425;-80
2022/05/26 13:01:48;;;;;;;1.90;0.50;;;;;;;;;;4911123;29;20111;-79
2022/05/26 13:04:24;;;;;;;0.45;0.40;;;;;;;;;;4910067;29;20130;-80
2022/05/26 13:06:54;;;;;;;1.30;0.45;;;;;;;;;;4905513;29;20071;-80
2022/05/26 13:09:27;;;;;;;0.85;0.40;;;;;;;;;;4921307;29;20142;-79
2022/05/26 13:12:00;;;;;;;1.08;0.50;;;;;;;;;;4923983;29;20049;-79
2022/05/26 13:14:31;;;;;;;1.48;0.43;;;;;;;;;;4923643;29;20449;-79
2022/05/26 13:17:00;;;;;;;0.50;0.50;;;;;;;;;;4922244;29;20509;-79
2022/05/26 13:19:28;;;;;;;1.92;0.50;;;;;;;;;;4923903;29;20088;-79
2022/05/26 13:21:57;;;;;;;1.15;0.52;;;;;;;;;;4922694;29;20046;-79
2022/05/26 13:24:31;;;;;;;3.72;0.43;;;;;;;;;;4906206;29;20046;-79
2022/05/26 13:27:00;;;;;;;3.67;0.60;;;;;;;;;;4924308;29;20044;-79
2022/05/26 13:29:29;;;;;;;0.82;0.60;;;;;;;;;;4925921;29;20052;-78
2022/05/26 13:34:45;;;;;;;2.28;0.70;;;;;;;;;;4925819;29;20058;-79
2022/05/26 13:37:31;;;;;;;3.70;0.80;;;;;;;;;;4926194;29;20039;-80
2022/05/26 13:40:13;;;;;;;0.68;0.50;;;;;;;;;;4925322;29;20048;-79
2022/05/26 13:42:47;;;;;;;0.55;0.45;;;;;;;;;;4921968;29;20054;-79
2022/05/26 13:45:21;;;;;;;3.03;0.47;;;;;;;;;;4921885;29;20497;-79
2022/05/26 13:47:49;;;;;;;0.30;0.30;;;;;;;;;;4906210;29;20054;-78
2022/05/26 13:50:26;;;;;;;0.82;0.50;;;;;;;;;;4925881;29;20051;-79
2022/05/26 13:52:53;;;;;;;2.00;0.40;;;;;;;;;;4910221;29;20048;-79
2022/05/26 13:55:22;;;;;;;0.77;0.50;;;;;;;;;;4923885;29;20044;-79
2022/05/26 13:57:51;;;;;;;4.93;0.60;;;;;;;;;;4924218;29;20039;-79
2022/05/26 14:00:24;;;;;;;0.52;0.40;;;;;;;;;;4910785;29;20641;-79
2022/05/26 14:02:53;;;;;;;1.13;0.73;;;;;;;;;;4926192;29;20060;-78
2022/05/26 14:05:22;;;;;;;1.10;0.60;;;;;;;;;;4925858;29;20040;-80
2022/05/26 14:07:59;;;;;;;5.38;0.60;;;;;;;;;;4925161;29;20050;-81
2022/05/26 14:10:51;;;;;;;1.98;0.40;;;;;;;;;;4926592;29;20055;-79
2022/05/26 14:13:19;;;;;;;1.80;0.50;;;;;;;;;;4902207;29;20107;-79
2022/05/26 14:15:48;;;;;;;2.80;0.60;;;;;;;;;;4912586;29;20047;-79
2022/05/26 14:18:24;;;;;;;1.10;0.60;;;;;;;;;;4912040;29;20119;-80
2022/05/26 14:21:14;;;;;;;2.40;0.35;;;;;;;;;;4928988;29;20536;-79
2022/05/26 14:23:48;;;;;;;2.72;0.70;;;;;;;;;;4918511;29;20433;-81
2022/05/26 14:26:21;;;;;;;8.57;7.88;;;;;;;;;;4929348;29;20035;-81
2022/05/26 14:28:49;;;;;;;2.85;0.70;;;;;;;;;;4899978;29;20295;-80
2022/05/26 14:31:19;;;;;;;2.25;0.40;;;;;;;;;;4929176;29;20047;-80
2022/05/26 14:34:07;;;;;;;0.75;0.50;;;;;;;;;;4929023;29;20070;-80
2022/05/26 14:36:35;;;;;;;1.33;0.60;;;;;;;;;;4928257;29;20059;-79
2022/05/26 14:39:03;;;;;;;0.73;0.50;;;;;;;;;;4913361;29;20303;-78
2022/05/26 14:41:31;;;;;;;0.40;0.40;;;;;;;;;;4913254;29;20047;-78
2022/05/26 14:44:03;;;;;;;2.63;0.40;;;;;;;;;;4927630;29;20057;-79
2022/05/26 14:46:30;;;;;;;1.02;0.68;;;;;;;;;;4928866;29;20097;-79
2022/05/26 14:48:59;;;;;;;2.55;0.63;;;;;;;;;;4928467;29;20071;-79
2022/05/26 14:51:31;;;;;;;0.95;0.50;;;;;;;;;;4896484;29;20065;-79
2022/05/26 14:56:46;;;;;;;1.40;0.40;;;;;;;;;;4913495;29;20126;-79
2022/05/26 14:59:14;;;;;;;1.38;0.63;;;;;;;;;;4909761;29;20493;-79
2022/05/26 15:01:42;;;;;;;1.83;0.40;;;;;;;;;;4894790;29;20273;-79
2022/05/26 15:04:10;;;;;;;0.40;0.40;;;;;;;;;;4927184;29;20052;-79
2022/05/26 15:06:39;;;;;;;2.15;0.50;;;;;;;;;;4927136;29;20258;-79
2022/05/26 15:09:11;;;;;;;1.00;0.50;;;;;;;;;;4927940;29;20048;-79
2022/05/26 15:11:40;;;;;;;2.70;0.43;;;;;;;;;;4926495;29;20061;-78
2022/05/26 15:14:07;;;;;;;2.50;0.52;;;;;;;;;;4926053;29;20055;-79
2022/05/26 15:16:40;;;;;;;1.02;0.50;;;;;;;;;;4904549;29;20050;-79
2022/05/26 15:19:10;;;;;;;1.42;0.50;;;;;;;;;;4927509;29;20047;-79
2022/05/26 15:21:38;;;;;;;0.80;0.40;;;;;;;;;;4921409;29;20048;-78
2022/05/26 15:24:21;;;;;;;1.60;0.70;;;;;;;;;;4908605;29;20077;-78
2022/05/26 15:26:53;;;;;;;2.65;0.40;;;;;;;;;;4890567;29;20426;-79
2022/05/26 15:29:30;;;;;;;2.20;0.40;;;;;;;;;;4904646;29;20556;-79
2022/05/26 15:32:47;;;;;;;1.40;0.50;;;;;;;;;;4886142;29;20122;-80
2022/05/26 15:39:28;;;;;;;;;;;;;;;;;;4856529;29;20051;-79
2022/05/26 15:42:35;;;;;;;;;;;;;;;;;;;;;
2022/05/26 15:46:16;;;;;;;0.90;0.35;;;;;;;;;;4822472;29;20061;-80
2022/05/26 15:53:00;;;;;;;1.52;0.45;;;;;;;;;;4909887;29;20063;-79
2022/05/26 15:59:38;;;;;;;;;;;;;;;;;;;;;
2022/05/26 16:02:47;;;;;;;0.90;0.70;;;;;;;;;;4931027;29;20473;-78
2022/05/26 16:06:18;;;;;;;0.40;0.40;;;;;;;;;;4918643;29;20660;-80
2022/05/26 16:09:27;;;;;;;0.93;0.40;;;;;;;;;;4896455;29;20437;-78
2022/05/26 16:11:56;;;;;;;0.63;0.40;;;;;;;;;;4898947;29;20044;-80
2022/05/26 16:15:10;;;;;;;1.75;0.30;;;;;;;;;;4879684;29;20379;-80